createdAt,value
2022-10-07T00:01:43.823Z,102512.00
2022-10-07T00:04:11.017Z,102511.00
2022-10-07T00:06:38.475Z,102508.00
2022-10-07T00:09:05.877Z,102519.00
2022-10-07T00:11:33.364Z,102506.00
2022-10-07T00:14:04.539Z,102518.00
2022-10-07T00:16:36.175Z,102510.00
2022-10-07T00:19:08.053Z,102495.00
2022-10-07T00:21:37.773Z,102511.00
2022-10-07T00:24:06.728Z,102504.00
2022-10-07T00:26:36.801Z,102498.00
2022-10-07T00:29:07.271Z,102502.00
2022-10-07T00:31:36.943Z,102489.00
2022-10-07T00:34:05.217Z,102492.00
2022-10-07T00:36:36.083Z,102499.00
2022-10-07T00:39:08.176Z,102488.00
2022-10-07T00:41:45.920Z,102489.00
2022-10-07T00:44:37.091Z,102491.00
2022-10-07T00:47:07.326Z,102484.00
2022-10-07T00:49:44.562Z,102491.00
2022-10-07T00:52:14.464Z,102487.00
2022-10-07T00:54:42.707Z,102486.00
2022-10-07T00:57:10.980Z,102484.00
2022-10-07T00:59:40.031Z,102469.00
2022-10-07T01:02:09.093Z,102469.00
2022-10-07T01:04:37.597Z,102466.00
2022-10-07T01:07:04.811Z,102468.00
2022-10-07T01:09:32.395Z,102471.00
2022-10-07T01:12:23.423Z,102459.00
2022-10-07T01:15:26.253Z,102462.00
2022-10-07T01:18:24.921Z,102442.00
2022-10-07T01:21:39.884Z,102455.00
2022-10-07T01:24:34.361Z,102447.00
2022-10-07T01:27:09.018Z,102439.00
2022-10-07T01:30:05.990Z,102433.00
2022-10-07T01:32:59.382Z,102448.00
2022-10-07T01:35:35.701Z,102437.00
2022-10-07T01:38:09.670Z,102437.00
2022-10-07T01:40:51.640Z,102426.00
2022-10-07T01:43:23.282Z,102421.00
2022-10-07T01:45:55.041Z,102424.00
2022-10-07T01:48:22.245Z,102416.00
2022-10-07T01:50:52.004Z,102415.00
2022-10-07T01:53:41.889Z,102404.00
2022-10-07T01:56:26.877Z,102397.00
2022-10-07T01:59:00.135Z,102405.00
2022-10-07T02:01:55.382Z,102403.00
2022-10-07T02:05:00.231Z,102395.00
2022-10-07T02:07:38.888Z,102395.00
2022-10-07T02:10:40.982Z,102377.00
2022-10-07T02:13:32.280Z,102387.00
2022-10-07T02:16:27.836Z,102376.00
2022-10-07T02:18:57.173Z,102377.00
2022-10-07T02:21:31.660Z,102372.00
2022-10-07T02:24:01.567Z,102356.00
2022-10-07T02:26:32.526Z,102360.00
2022-10-07T02:29:03.723Z,102360.00
2022-10-07T02:31:34.329Z,102344.00
2022-10-07T02:34:23.445Z,102352.00
2022-10-07T02:36:59.330Z,102344.00
2022-10-07T02:43:48.749Z,102345.00
2022-10-07T02:46:32.883Z,102342.00
2022-10-07T02:49:08.090Z,102332.00
2022-10-07T02:52:16.869Z,102331.00
2022-10-07T02:55:00.585Z,102332.00
2022-10-07T02:57:33.601Z,102336.00
2022-10-07T03:00:05.154Z,102331.00
2022-10-07T03:03:02.879Z,102331.00
2022-10-07T03:05:30.933Z,102323.00
2022-10-07T03:08:08.632Z,102317.00
2022-10-07T03:10:36.060Z,102326.00
2022-10-07T03:13:06.208Z,102317.00
2022-10-07T03:15:41.844Z,102310.00
2022-10-07T03:18:26.631Z,102318.00
2022-10-07T03:20:56.233Z,102301.00
2022-10-07T03:23:25.267Z,102301.00
2022-10-07T03:25:54.506Z,102293.00
2022-10-07T03:28:25.757Z,102290.00
2022-10-07T03:30:54.029Z,102298.00
2022-10-07T03:33:25.965Z,102295.00
2022-10-07T03:35:53.978Z,102290.00
2022-10-07T03:38:21.517Z,102283.00
2022-10-07T03:40:49.458Z,102287.00
2022-10-07T03:43:16.582Z,102297.00
2022-10-07T03:45:45.255Z,102282.00
2022-10-07T03:48:12.379Z,102293.00
2022-10-07T03:50:39.826Z,102287.00
2022-10-07T03:53:07.012Z,102287.00
2022-10-07T03:55:34.858Z,102280.00
2022-10-07T03:58:01.985Z,102266.00
2022-10-07T04:00:29.219Z,102277.00
2022-10-07T04:02:56.472Z,102267.00
2022-10-07T04:05:23.693Z,102273.00
2022-10-07T04:07:52.453Z,102279.00
2022-10-07T04:10:21.645Z,102266.00
2022-10-07T04:12:48.985Z,102282.00
2022-10-07T04:15:16.169Z,102269.00
2022-10-07T04:17:45.744Z,102247.00
2022-10-07T04:20:16.628Z,102265.00
2022-10-07T04:22:44.250Z,102269.00
2022-10-07T04:25:31.412Z,102247.00
2022-10-07T04:28:00.532Z,102256.00
2022-10-07T04:30:34.900Z,102261.00
2022-10-07T04:33:03.114Z,102254.00
2022-10-07T04:35:31.347Z,102256.00
2022-10-07T04:37:58.450Z,102259.00
2022-10-07T04:40:27.598Z,102259.00
2022-10-07T04:43:13.558Z,102266.00
2022-10-07T04:45:40.849Z,102256.00
2022-10-07T04:48:08.035Z,102254.00
2022-10-07T04:50:38.874Z,102252.00
2022-10-07T04:53:11.682Z,102251.00
2022-10-07T04:55:41.334Z,102244.00
2022-10-07T04:58:09.314Z,102236.00
2022-10-07T05:00:48.460Z,102245.00
2022-10-07T05:03:18.581Z,102244.00
2022-10-07T05:05:49.697Z,102241.00
2022-10-07T05:08:20.440Z,102221.00
2022-10-07T05:10:48.196Z,102250.00
2022-10-07T05:13:17.165Z,102236.00
2022-10-07T05:15:55.687Z,102226.00
2022-10-07T05:18:25.162Z,102232.00
2022-10-07T05:20:52.458Z,102230.00
2022-10-07T05:23:27.280Z,102220.00
2022-10-07T05:26:01.989Z,102234.00
2022-10-07T05:28:29.529Z,102228.00
2022-10-07T05:31:13.732Z,102223.00
2022-10-07T05:33:41.535Z,102229.00
2022-10-07T05:36:10.417Z,102228.00
2022-10-07T05:38:38.221Z,102220.00
2022-10-07T05:41:09.913Z,102220.00
2022-10-07T05:43:42.133Z,102217.00
2022-10-07T05:46:14.136Z,102209.00
2022-10-07T05:48:45.701Z,102211.00
2022-10-07T05:53:56.954Z,102212.00
2022-10-07T05:56:24.301Z,102214.00
2022-10-07T05:58:53.030Z,102210.00
2022-10-07T06:01:25.123Z,102213.00
2022-10-07T06:03:55.747Z,102215.00
2022-10-07T06:06:41.666Z,102214.00
2022-10-07T06:09:29.903Z,102217.00
2022-10-07T06:12:15.657Z,102209.00
2022-10-07T06:14:42.754Z,102207.00
2022-10-07T06:17:09.910Z,102209.00
2022-10-07T06:19:40.178Z,102197.00
2022-10-07T06:22:07.440Z,102199.00
2022-10-07T06:24:35.373Z,102205.00
2022-10-07T06:27:02.760Z,102206.00
2022-10-07T06:29:29.936Z,102191.00
2022-10-07T06:31:57.015Z,102200.00
2022-10-07T06:34:24.182Z,102191.00
2022-10-07T06:36:51.307Z,102201.00
2022-10-07T06:39:37.371Z,102205.00
2022-10-07T06:42:04.782Z,102203.00
2022-10-07T06:44:33.784Z,102203.00
2022-10-07T06:47:00.900Z,102206.00
2022-10-07T06:49:28.100Z,102198.00
2022-10-07T06:51:55.238Z,102212.00
2022-10-07T06:54:22.448Z,102205.00
2022-10-07T06:56:49.852Z,102204.00
2022-10-07T06:59:16.954Z,102204.00
2022-10-07T07:01:44.030Z,102205.00
2022-10-07T07:04:11.180Z,102210.00
2022-10-07T07:06:39.276Z,102200.00
2022-10-07T07:09:06.598Z,102199.00
2022-10-07T07:11:37.121Z,102200.00
2022-10-07T07:14:09.643Z,102187.00
2022-10-07T07:16:37.205Z,102198.00
2022-10-07T07:19:08.916Z,102187.00
2022-10-07T07:21:41.152Z,102190.00
2022-10-07T07:24:29.327Z,102187.00
2022-10-07T07:27:35.146Z,102185.00
2022-10-07T07:30:06.017Z,102186.00
2022-10-07T07:32:33.066Z,102182.00
2022-10-07T07:35:21.879Z,102189.00
2022-10-07T07:37:49.066Z,102185.00
2022-10-07T07:40:21.185Z,102187.00
2022-10-07T07:42:49.192Z,102184.00
2022-10-07T07:46:38.533Z,102185.00
2022-10-07T07:49:06.771Z,102182.00
2022-10-07T07:52:13.745Z,102178.00
2022-10-07T07:54:42.158Z,102176.00
2022-10-07T07:57:10.370Z,102183.00
2022-10-07T07:59:38.382Z,102182.00
2022-10-07T08:02:06.744Z,102181.00
2022-10-07T08:04:33.863Z,102177.00
2022-10-07T08:07:00.955Z,102171.00
2022-10-07T08:09:28.004Z,102180.00
2022-10-07T08:11:56.496Z,102178.00
2022-10-07T08:14:23.664Z,102174.00
2022-10-07T08:16:51.582Z,102166.00
2022-10-07T08:19:18.806Z,102158.00
2022-10-07T08:21:46.061Z,102175.00
2022-10-07T08:24:14.127Z,102170.00
2022-10-07T08:26:41.353Z,102176.00
2022-10-07T08:29:08.529Z,102169.00
2022-10-07T08:31:36.058Z,102171.00
2022-10-07T08:34:05.305Z,102160.00
2022-10-07T08:36:34.278Z,102158.00
2022-10-07T08:39:02.865Z,102158.00
2022-10-07T08:41:42.096Z,102145.00
2022-10-07T08:44:20.805Z,102145.00
2022-10-07T08:46:51.002Z,102148.00
2022-10-07T08:49:30.956Z,102147.00
2022-10-07T08:52:17.730Z,102145.00
2022-10-07T08:54:44.914Z,102129.00
2022-10-07T08:57:24.041Z,102129.00
2022-10-07T08:59:59.518Z,102122.00
2022-10-07T09:02:29.706Z,102116.00
2022-10-07T09:05:22.370Z,102109.00
2022-10-07T09:07:56.106Z,102114.00
2022-10-07T09:10:35.063Z,102109.00
2022-10-07T09:13:28.363Z,102111.00
2022-10-07T09:16:15.036Z,102111.00
2022-10-07T09:18:51.189Z,102099.00
2022-10-07T09:21:42.511Z,102105.00
2022-10-07T09:24:26.153Z,102102.00
2022-10-07T09:27:01.698Z,102087.00
2022-10-07T09:29:31.013Z,102086.00
2022-10-07T09:31:58.445Z,102073.00
2022-10-07T09:34:31.662Z,102068.00
2022-10-07T09:37:21.234Z,102061.00
2022-10-07T09:39:54.759Z,102064.00
2022-10-07T09:42:33.837Z,102045.00
2022-10-07T09:45:32.164Z,102057.00
2022-10-07T09:48:17.008Z,102049.00
2022-10-07T09:50:44.922Z,102050.00
2022-10-07T09:53:24.056Z,102034.00
2022-10-07T09:55:55.107Z,102040.00
2022-10-07T09:58:27.559Z,102039.00
2022-10-07T10:01:01.592Z,102043.00
2022-10-07T10:03:35.314Z,102039.00
2022-10-07T10:06:09.301Z,102031.00
2022-10-07T10:08:43.567Z,102032.00
2022-10-07T10:11:31.039Z,102029.00
2022-10-07T10:13:58.165Z,102032.00
2022-10-07T10:16:46.988Z,102027.00
2022-10-07T10:19:27.952Z,102024.00
2022-10-07T10:21:58.066Z,102017.00
2022-10-07T10:25:09.170Z,102016.00
2022-10-07T10:28:03.981Z,102011.00
2022-10-07T10:30:35.471Z,102008.00
2022-10-07T10:33:39.218Z,102010.00
2022-10-07T10:36:20.970Z,102005.00
2022-10-07T10:39:01.671Z,102002.00
2022-10-07T10:41:48.807Z,101999.00
2022-10-07T10:44:40.334Z,101987.00
2022-10-07T10:47:28.194Z,101987.00
2022-10-07T10:50:32.544Z,101990.00
2022-10-07T10:53:13.652Z,101976.00
2022-10-07T10:56:12.477Z,101976.00
2022-10-07T10:59:04.103Z,101978.00
2022-10-07T11:01:42.510Z,101972.00
2022-10-07T11:04:46.832Z,101965.00
2022-10-07T11:07:37.745Z,101958.00
2022-10-07T11:10:25.021Z,101948.00
2022-10-07T11:13:15.833Z,101941.00
2022-10-07T11:16:06.164Z,101946.00
2022-10-07T11:19:24.816Z,101942.00
2022-10-07T11:21:55.144Z,101931.00
2022-10-07T11:24:34.858Z,101930.00
2022-10-07T11:27:19.604Z,101924.00
2022-10-07T11:30:33.929Z,101924.00
2022-10-07T11:33:11.972Z,101924.00
2022-10-07T11:35:49.568Z,101919.00
2022-10-07T11:38:31.485Z,101915.00
2022-10-07T11:41:13.783Z,101913.00
2022-10-07T11:44:00.713Z,101908.00
2022-10-07T11:46:43.436Z,101903.00
2022-10-07T11:49:44.486Z,101896.00
2022-10-07T11:52:26.878Z,101894.00
2022-10-07T11:55:27.205Z,101889.00
2022-10-07T11:58:04.429Z,101889.00
2022-10-07T12:00:35.819Z,101878.00
2022-10-07T12:03:45.966Z,101865.00
2022-10-07T12:06:13.176Z,101852.00
2022-10-07T12:08:44.274Z,101849.00
2022-10-07T12:11:16.907Z,101847.00
2022-10-07T12:13:50.717Z,101850.00
2022-10-07T12:16:24.011Z,101838.00
2022-10-07T12:19:13.206Z,101832.00
2022-10-07T12:22:05.626Z,101830.00
2022-10-07T12:24:38.900Z,101822.00
2022-10-07T12:27:17.914Z,101823.00
2022-10-07T12:29:50.969Z,101809.00
2022-10-07T12:32:52.251Z,101816.00
2022-10-07T12:35:37.020Z,101808.00
2022-10-07T12:38:42.810Z,101798.00
2022-10-07T12:41:44.050Z,101794.00
2022-10-07T12:44:23.910Z,101789.00
2022-10-07T12:47:08.397Z,101794.00
2022-10-07T12:49:47.109Z,101794.00
2022-10-07T12:52:42.299Z,101781.00
2022-10-07T12:55:17.031Z,101778.00
2022-10-07T12:57:52.575Z,101767.00
2022-10-07T13:00:25.226Z,101765.00
2022-10-07T13:03:29.523Z,101758.00
2022-10-07T13:06:08.557Z,101759.00
2022-10-07T13:09:03.022Z,101756.00
2022-10-07T13:11:54.776Z,101751.00
2022-10-07T13:14:50.802Z,101744.00
2022-10-07T13:17:59.616Z,101741.00
2022-10-07T13:21:04.316Z,101743.00
2022-10-07T13:23:32.328Z,101740.00
2022-10-07T13:26:03.240Z,101731.00
2022-10-07T13:28:47.629Z,101735.00
2022-10-07T13:31:26.396Z,101733.00
2022-10-07T13:33:56.052Z,101728.00
2022-10-07T13:36:30.749Z,101720.00
2022-10-07T13:39:33.273Z,101720.00
2022-10-07T13:42:02.252Z,101714.00
2022-10-07T13:44:32.709Z,101718.00
2022-10-07T13:47:06.162Z,101711.00
2022-10-07T13:49:47.237Z,101710.00
2022-10-07T13:52:39.748Z,101715.00
2022-10-07T13:55:31.149Z,101705.00
2022-10-07T13:58:02.073Z,101697.00
2022-10-07T14:00:34.076Z,101697.00
2022-10-07T14:03:02.111Z,101692.00
2022-10-07T14:05:32.083Z,101689.00
2022-10-07T14:08:15.252Z,101680.00
2022-10-07T14:11:21.838Z,101679.00
2022-10-07T14:13:49.020Z,101674.00
2022-10-07T14:16:23.291Z,101675.00
2022-10-07T14:18:52.891Z,101674.00
2022-10-07T14:21:20.035Z,101665.00
2022-10-07T14:23:47.527Z,101660.00
2022-10-07T14:26:16.412Z,101662.00
2022-10-07T14:33:29.797Z,101649.00
2022-10-07T14:36:19.139Z,101646.00
2022-10-07T14:38:49.788Z,101637.00
2022-10-07T14:41:20.993Z,101637.00
2022-10-07T14:43:51.946Z,101637.00
2022-10-07T14:46:24.227Z,101637.00
2022-10-07T14:48:53.905Z,101636.00
2022-10-07T14:51:27.751Z,101635.00
2022-10-07T14:54:07.452Z,101636.00
2022-10-07T14:56:39.223Z,101632.00
2022-10-07T14:59:15.421Z,101636.00
2022-10-07T15:01:50.325Z,101633.00
2022-10-07T15:04:17.595Z,101622.00
2022-10-07T15:06:50.039Z,101628.00
2022-10-07T15:09:18.819Z,101622.00
2022-10-07T15:11:46.051Z,101620.00
2022-10-07T15:14:13.217Z,101621.00
2022-10-07T15:16:41.759Z,101618.00
2022-10-07T15:19:09.456Z,101612.00
2022-10-07T15:21:36.575Z,101607.00
2022-10-07T15:24:03.901Z,101607.00
2022-10-07T15:26:31.399Z,101606.00
2022-10-07T15:29:00.009Z,101597.00
2022-10-07T15:31:30.194Z,101592.00
2022-10-07T15:33:58.124Z,101599.00
2022-10-07T15:36:29.183Z,101590.00
2022-10-07T15:38:59.251Z,101595.00
2022-10-07T15:41:32.113Z,101595.00
2022-10-07T15:44:02.146Z,101595.00
2022-10-07T15:46:29.776Z,101599.00
2022-10-07T15:48:59.376Z,101591.00
2022-10-07T15:51:27.793Z,101595.00
2022-10-07T15:53:55.142Z,101587.00
2022-10-07T15:56:25.558Z,101581.00
2022-10-07T15:58:53.425Z,101586.00
2022-10-07T16:01:20.980Z,101578.00
2022-10-07T16:03:50.149Z,101577.00
2022-10-07T16:07:36.012Z,101588.00
2022-10-07T16:10:21.915Z,101587.00
2022-10-07T16:12:49.220Z,101567.00
2022-10-07T16:15:16.728Z,101575.00
2022-10-07T16:17:43.813Z,101576.00
2022-10-07T16:20:11.702Z,101580.00
2022-10-07T16:22:38.891Z,101576.00
2022-10-07T16:25:06.683Z,101571.00
2022-10-07T16:27:52.389Z,101573.00
2022-10-07T16:30:38.126Z,101573.00
2022-10-07T16:33:05.178Z,101577.00
2022-10-07T16:35:32.259Z,101574.00
2022-10-07T16:37:59.740Z,101576.00
2022-10-07T16:40:26.881Z,101565.00
2022-10-07T16:42:53.994Z,101562.00
2022-10-07T16:45:23.268Z,101566.00
2022-10-07T16:47:50.458Z,101567.00
2022-10-07T16:50:17.915Z,101563.00
2022-10-07T16:52:48.089Z,101573.00
2022-10-07T16:55:15.482Z,101566.00
2022-10-07T16:57:42.641Z,101569.00
2022-10-07T17:00:10.981Z,101565.00
2022-10-07T17:02:38.122Z,101564.00
2022-10-07T17:05:05.836Z,101566.00
2022-10-07T17:07:33.344Z,101565.00
2022-10-07T17:10:00.506Z,101564.00
2022-10-07T17:12:27.695Z,101569.00
2022-10-07T17:14:54.846Z,101580.00
2022-10-07T17:17:22.019Z,101558.00
2022-10-07T17:19:49.207Z,101571.00
2022-10-07T17:22:16.546Z,101565.00
2022-10-07T17:24:43.713Z,101568.00
2022-10-07T17:27:11.489Z,101571.00
2022-10-07T17:29:38.780Z,101569.00
2022-10-07T17:32:07.746Z,101560.00
2022-10-07T17:34:34.839Z,101563.00
2022-10-07T17:37:02.256Z,101571.00
2022-10-07T17:39:31.247Z,101567.00
2022-10-07T17:41:58.455Z,101559.00
2022-10-07T17:44:25.878Z,101566.00
2022-10-07T17:46:53.236Z,101562.00
2022-10-07T17:49:20.778Z,101573.00
2022-10-07T17:51:47.987Z,101559.00
2022-10-07T17:54:15.507Z,101565.00
2022-10-07T17:56:44.619Z,101573.00
2022-10-07T17:59:12.565Z,101574.00
2022-10-07T18:01:40.520Z,101566.00
2022-10-07T18:04:15.573Z,101568.00
2022-10-07T18:06:46.247Z,101567.00
2022-10-07T18:09:18.519Z,101572.00
2022-10-07T18:12:04.903Z,101574.00
2022-10-07T18:14:53.733Z,101576.00
2022-10-07T18:17:21.846Z,101581.00
2022-10-07T18:19:48.990Z,101574.00
2022-10-07T18:22:16.136Z,101579.00
2022-10-07T18:24:43.367Z,101578.00
2022-10-07T18:27:10.507Z,101576.00
2022-10-07T18:29:38.349Z,101570.00
2022-10-07T18:33:20.770Z,101572.00
2022-10-07T18:35:47.886Z,101576.00
2022-10-07T18:38:52.338Z,101579.00
2022-10-07T18:41:19.949Z,101583.00
2022-10-07T18:43:47.194Z,101577.00
2022-10-07T18:46:19.250Z,101570.00
2022-10-07T18:48:49.675Z,101581.00
2022-10-07T18:51:18.088Z,101573.00
2022-10-07T18:53:49.207Z,101568.00
2022-10-07T18:56:24.321Z,101562.00
2022-10-07T18:58:53.518Z,101566.00
2022-10-07T19:01:30.346Z,101558.00
2022-10-07T19:04:01.838Z,101560.00
2022-10-07T19:06:32.387Z,101554.00
2022-10-07T19:09:06.045Z,101550.00
2022-10-07T19:11:33.626Z,101537.00
2022-10-07T19:14:01.667Z,101550.00
2022-10-07T19:16:38.972Z,101543.00
2022-10-07T19:19:14.923Z,101552.00
2022-10-07T19:21:42.685Z,101548.00
2022-10-07T19:24:09.889Z,101559.00
2022-10-07T19:26:42.876Z,101551.00
2022-10-07T19:29:11.068Z,101546.00
2022-10-07T19:31:42.179Z,101557.00
2022-10-07T19:34:22.528Z,101548.00
2022-10-07T19:36:50.638Z,101546.00
2022-10-07T19:39:21.383Z,101546.00
2022-10-07T19:41:49.152Z,101543.00
2022-10-07T19:44:16.603Z,101547.00
2022-10-07T19:46:45.616Z,101545.00
2022-10-07T19:49:13.123Z,101541.00
2022-10-07T19:51:41.967Z,101544.00
2022-10-07T19:54:10.834Z,101552.00
2022-10-07T19:56:40.652Z,101550.00
2022-10-07T19:59:14.059Z,101543.00
2022-10-07T20:01:44.586Z,101550.00
2022-10-07T20:04:19.056Z,101536.00
2022-10-07T20:06:46.756Z,101548.00
2022-10-07T20:09:20.380Z,101546.00
2022-10-07T20:11:48.076Z,101538.00
2022-10-07T20:14:16.438Z,101540.00
2022-10-07T20:16:44.150Z,101530.00
2022-10-07T20:19:18.804Z,101537.00
2022-10-07T20:21:46.749Z,101531.00
2022-10-07T20:24:16.645Z,101531.00
2022-10-07T20:26:45.109Z,101544.00
2022-10-07T20:29:16.185Z,101547.00
2022-10-07T20:31:44.718Z,101539.00
2022-10-07T20:34:20.160Z,101533.00
2022-10-07T20:36:47.330Z,101532.00
2022-10-07T20:39:37.255Z,101538.00
2022-10-07T20:42:21.570Z,101528.00
2022-10-07T20:44:49.831Z,101525.00
2022-10-07T20:47:18.429Z,101518.00
2022-10-07T20:49:48.152Z,101521.00
2022-10-07T20:52:18.783Z,101522.00
2022-10-07T20:54:47.817Z,101520.00
2022-10-07T20:57:19.269Z,101521.00
2022-10-07T20:59:46.536Z,101511.00
2022-10-07T21:02:16.488Z,101506.00
2022-10-07T21:04:44.200Z,101518.00
2022-10-07T21:07:11.422Z,101508.00
2022-10-07T21:09:40.083Z,101511.00
2022-10-07T21:12:14.551Z,101509.00
2022-10-07T21:14:45.332Z,101513.00
2022-10-07T21:17:12.832Z,101510.00
2022-10-07T21:19:40.389Z,101501.00
2022-10-07T21:22:08.208Z,101495.00
2022-10-07T21:24:35.935Z,101492.00
2022-10-07T21:27:08.030Z,101492.00
2022-10-07T21:29:40.394Z,101494.00
2022-10-07T21:32:10.413Z,101488.00
2022-10-07T21:34:38.569Z,101481.00
2022-10-07T21:37:05.750Z,101489.00
2022-10-07T21:39:33.047Z,101489.00
2022-10-07T21:42:00.215Z,101486.00
2022-10-07T21:44:28.221Z,101493.00
2022-10-07T21:46:55.691Z,101486.00
2022-10-07T21:49:23.338Z,101482.00
2022-10-07T21:51:50.511Z,101488.00
2022-10-07T21:54:17.647Z,101493.00
2022-10-07T21:56:47.484Z,101486.00
2022-10-07T21:59:14.981Z,101494.00
2022-10-07T22:01:43.270Z,101490.00
2022-10-07T22:04:18.217Z,101484.00
2022-10-07T22:07:04.532Z,101478.00
2022-10-07T22:09:32.158Z,101481.00
2022-10-07T22:11:59.489Z,101476.00
2022-10-07T22:14:27.855Z,101483.00
2022-10-07T22:16:55.340Z,101473.00
2022-10-07T22:19:23.354Z,101455.00
2022-10-07T22:21:50.861Z,101475.00
2022-10-07T22:24:18.232Z,101471.00
2022-10-07T22:26:47.917Z,101461.00
2022-10-07T22:29:18.021Z,101471.00
2022-10-07T22:31:46.134Z,101463.00
2022-10-07T22:34:33.888Z,101466.00
2022-10-07T22:37:01.536Z,101456.00
2022-10-07T22:39:29.584Z,101461.00
2022-10-07T22:41:58.722Z,101453.00
2022-10-07T22:44:28.227Z,101454.00
2022-10-07T22:46:56.835Z,101460.00
2022-10-07T22:49:29.311Z,101469.00
2022-10-07T22:51:58.301Z,101462.00
2022-10-07T22:54:26.578Z,101459.00
2022-10-07T22:56:53.952Z,101456.00
2022-10-07T22:59:21.316Z,101446.00
2022-10-07T23:01:48.467Z,101448.00
2022-10-07T23:04:15.575Z,101454.00
2022-10-07T23:06:42.731Z,101442.00
2022-10-07T23:09:10.095Z,101438.00
2022-10-07T23:11:37.386Z,101447.00
2022-10-07T23:14:05.632Z,101437.00
2022-10-07T23:16:34.247Z,101440.00
2022-10-07T23:19:01.608Z,101439.00
2022-10-07T23:21:36.476Z,101436.00
2022-10-07T23:24:07.785Z,101434.00
2022-10-07T23:26:37.143Z,101434.00
2022-10-07T23:29:04.976Z,101431.00
2022-10-07T23:31:33.282Z,101428.00
2022-10-07T23:34:03.070Z,101418.00
2022-10-07T23:36:31.398Z,101409.00
2022-10-07T23:39:00.857Z,101414.00
2022-10-07T23:41:30.981Z,101417.00
2022-10-07T23:44:02.222Z,101409.00
2022-10-07T23:46:33.211Z,101406.00
2022-10-07T23:49:00.695Z,101402.00
2022-10-07T23:51:29.108Z,101405.00
2022-10-07T23:53:57.444Z,101406.00
2022-10-07T23:56:24.873Z,101416.00
2022-10-07T23:58:52.425Z,101414.00
